Time;durP1;ratioP1;P1;durP2;ratioP2;P2;SDS_P1;SDS_P2;PMS_P1;PMS_P2;Temp;Humidity;BMP_temperature;BMP_pressure;BME280_temperature;BME280_humidity;BME280_pressure;Samples;Min_cycle;Max_cycle;Signal;HPM_P1;HPM_P2
2022/04/10 00:00:09;;;;;;;20.70;4.30;;;3.80;99.90;;;;;;5000280;28;20058;-82
2022/04/10 00:02:35;;;;;;;15.52;3.45;;;2.60;99.90;;;;;;5012498;28;20041;-82
2022/04/10 00:05:01;;;;;;;17.80;3.83;;;2.50;99.90;;;;;;4996674;28;20054;-81
2022/04/10 00:07:27;;;;;;;16.42;3.72;;;3.90;99.90;;;;;;5012452;28;20129;-82
2022/04/10 00:09:52;;;;;;;15.85;4.13;;;2.50;99.90;;;;;;4994306;28;20088;-83
2022/04/10 00:12:18;;;;;;;17.00;3.63;;;2.70;99.90;;;;;;4995674;28;20130;-83
2022/04/10 00:14:45;;;;;;;20.30;3.83;;;2.50;99.90;;;;;;4978486;28;20146;-82
2022/04/10 00:17:11;;;;;;;20.30;3.33;;;3.80;99.90;;;;;;5017999;28;20050;-83
2022/04/10 00:19:38;;;;;;;20.85;4.03;;;2.50;99.90;;;;;;5011022;28;20053;-82
2022/04/10 00:22:04;;;;;;;18.83;4.10;;;3.30;99.90;;;;;;4994594;28;20125;-83
2022/04/10 00:24:30;;;;;;;17.33;3.47;;;2.50;99.90;;;;;;4994659;28;20081;-83
2022/04/10 00:26:55;;;;;;;18.05;3.72;;;2.90;99.90;;;;;;4994720;28;20046;-83
2022/04/10 00:29:21;;;;;;;28.80;4.95;;;2.50;99.90;;;;;;4995191;28;20494;-82
2022/04/10 00:31:46;;;;;;;21.63;4.07;;;3.60;99.90;;;;;;5011009;28;20521;-81
2022/04/10 00:34:13;;;;;;;25.25;4.00;;;3.80;99.90;;;;;;5011284;28;20092;-82
2022/04/10 00:36:38;;;;;;;18.23;3.63;;;3.20;99.90;;;;;;4978564;28;20084;-82
2022/04/10 00:39:04;;;;;;;14.52;3.38;;;2.40;99.90;;;;;;4994072;28;20049;-81
2022/04/10 00:41:30;;;;;;;21.80;3.90;;;3.30;99.90;;;;;;5010686;28;20042;-82
2022/04/10 00:44:16;;;;;;;17.42;3.65;;;2.70;99.90;;;;;;4994102;28;20069;-81
2022/04/10 00:46:41;;;;;;;14.02;3.22;;;2.30;99.90;;;;;;5010285;28;20064;-82
2022/04/10 00:49:07;;;;;;;17.08;3.72;;;2.30;99.90;;;;;;4978168;28;20041;-81
2022/04/10 00:51:43;;;;;;;15.10;3.30;;;2.30;99.90;;;;;;4994863;28;20060;-82
2022/04/10 00:54:20;;;;;;;15.25;4.03;;;2.30;99.90;;;;;;4979787;28;20053;-82
2022/04/10 00:56:46;;;;;;;21.25;3.53;;;3.10;99.90;;;;;;4994520;28;20082;-81
2022/04/10 00:59:12;;;;;;;10.05;3.83;;;2.60;99.90;;;;;;5010503;28;20493;-82
2022/04/10 01:01:38;;;;;;;16.42;4.45;;;3.20;99.90;;;;;;5010503;28;20088;-82
2022/04/10 01:04:04;;;;;;;23.45;3.95;;;2.30;99.90;;;;;;4978290;28;20140;-82
2022/04/10 01:06:31;;;;;;;25.98;3.72;;;2.30;99.90;;;;;;4994840;28;20388;-82
2022/04/10 01:08:57;;;;;;;20.80;3.55;;;2.70;99.90;;;;;;4994370;28;20490;-81
2022/04/10 01:11:23;;;;;;;21.25;4.68;;;3.30;99.90;;;;;;5011132;28;20057;-81
2022/04/10 01:13:49;;;;;;;13.02;3.65;;;2.80;99.90;;;;;;4997205;28;20058;-82
2022/04/10 01:16:15;;;;;;;23.70;6.03;;;3.70;99.90;;;;;;4998144;28;20057;-82
2022/04/10 01:18:41;;;;;;;18.65;3.53;;;2.30;99.90;;;;;;4998111;28;20061;-83
2022/04/10 01:21:07;;;;;;;17.52;3.58;;;2.90;99.90;;;;;;4997621;28;20124;-82
2022/04/10 01:23:32;;;;;;;20.13;3.05;;;2.20;99.90;;;;;;4998063;28;20124;-82
2022/04/10 01:25:58;;;;;;;23.17;3.95;;;2.90;99.90;;;;;;5013909;28;20076;-82
2022/04/10 01:28:24;;;;;;;18.48;4.55;;;2.90;99.90;;;;;;4997791;28;20042;-81
2022/04/10 01:30:49;;;;;;;24.70;3.90;;;2.20;99.90;;;;;;5014499;28;20184;-82
2022/04/10 01:33:15;;;;;;;20.92;3.80;;;2.10;99.90;;;;;;5013872;28;20116;-82
2022/04/10 01:35:41;;;;;;;24.08;4.03;;;2.10;99.90;;;;;;5013886;28;20508;-81
2022/04/10 01:38:07;;;;;;;24.05;3.65;;;2.80;99.90;;;;;;4981062;28;20045;-83
2022/04/10 01:40:33;;;;;;;16.95;3.70;;;3.10;99.90;;;;;;4997810;28;20046;-82
2022/04/10 01:42:59;;;;;;;14.85;3.90;;;2.10;99.90;;;;;;4997456;28;20060;-82
2022/04/10 01:45:24;;;;;;;14.90;3.60;;;2.10;99.90;;;;;;4997709;28;20046;-82
2022/04/10 01:47:53;;;;;;;19.05;3.70;;;2.40;99.90;;;;;;4997477;28;20076;-82
2022/04/10 01:50:19;;;;;;;25.67;4.03;;;2.10;99.90;;;;;;5013220;28;20137;-83
2022/04/10 01:52:45;;;;;;;23.35;4.07;;;2.90;99.90;;;;;;5013534;28;20053;-83
2022/04/10 01:55:11;;;;;;;20.77;3.67;;;2.60;99.90;;;;;;4997083;28;20092;-83
2022/04/10 01:57:37;;;;;;;14.95;3.80;;;2.00;99.90;;;;;;4997546;28;20042;-83
2022/04/10 02:00:06;;;;;;;20.00;3.78;;;2.00;99.90;;;;;;4996946;28;20050;-81
2022/04/10 02:02:32;;;;;;;16.08;3.78;;;1.90;99.90;;;;;;4996924;28;20050;-82
2022/04/10 02:04:58;;;;;;;30.77;5.68;;;1.90;99.90;;;;;;4996988;28;20054;-82
2022/04/10 02:07:23;;;;;;;22.42;4.72;;;1.90;99.90;;;;;;4998400;28;20045;-81
2022/04/10 02:09:49;;;;;;;17.80;4.38;;;2.80;99.90;;;;;;5015005;28;20038;-82
2022/04/10 02:12:15;;;;;;;13.07;4.15;;;2.30;99.90;;;;;;4998806;28;20056;-82
2022/04/10 02:14:41;;;;;;;17.27;3.67;;;3.00;99.90;;;;;;5015064;28;20065;-82
2022/04/10 02:17:06;;;;;;;24.58;4.05;;;1.90;99.90;;;;;;4999461;28;20065;-83
2022/04/10 02:19:32;;;;;;;16.27;3.92;;;1.80;99.90;;;;;;5001517;28;20057;-82
2022/04/10 02:21:59;;;;;;;14.48;3.38;;;1.80;99.90;;;;;;5017674;28;20056;-81
2022/04/10 02:24:25;;;;;;;22.00;3.80;;;1.40;99.90;;;;;;5028458;28;20102;-82
2022/04/10 02:26:51;;;;;;;20.77;4.18;;;3.10;99.90;;;;;;5029794;28;20046;-82
2022/04/10 02:29:16;;;;;;;24.98;4.38;;;1.80;99.90;;;;;;5027143;28;20061;-82
2022/04/10 02:31:42;;;;;;;15.32;4.25;;;2.70;99.90;;;;;;5026752;28;20052;-81
2022/04/10 02:34:08;;;;;;;15.15;3.70;;;2.90;99.90;;;;;;5025547;28;20045;-82
2022/04/10 02:36:34;;;;;;;19.55;4.35;;;2.90;99.90;;;;;;5007219;28;20050;-82
2022/04/10 02:38:59;;;;;;;20.85;4.18;;;1.80;99.90;;;;;;5020532;28;20073;-82
2022/04/10 02:41:25;;;;;;;21.13;3.78;;;2.80;99.90;;;;;;5017102;28;20050;-82
2022/04/10 02:43:51;;;;;;;16.08;3.50;;;3.20;99.90;;;;;;5015756;28;20081;-82
2022/04/10 02:46:16;;;;;;;17.50;3.83;;;2.40;99.90;;;;;;5015323;28;20045;-83
2022/04/10 02:48:42;;;;;;;11.60;3.03;;;1.80;99.90;;;;;;4999981;28;20054;-83
2022/04/10 02:51:08;;;;;;;13.65;3.40;;;1.70;99.90;;;;;;4998843;28;20195;-82
2022/04/10 02:53:33;;;;;;;19.10;3.70;;;1.70;99.90;;;;;;5000428;28;20050;-82
2022/04/10 02:55:59;;;;;;;19.17;3.97;;;2.90;99.90;;;;;;5026789;28;20081;-83
2022/04/10 02:58:26;;;;;;;17.63;4.13;;;1.70;99.90;;;;;;5008709;28;20474;-83
2022/04/10 03:00:51;;;;;;;20.88;3.90;;;1.70;99.90;;;;;;4991042;28;20076;-83
2022/04/10 03:03:17;;;;;;;18.35;3.70;;;1.80;99.90;;;;;;5003236;28;20042;-82
2022/04/10 03:05:43;;;;;;;16.52;3.83;;;2.30;99.90;;;;;;5018479;28;20401;-81
2022/04/10 03:08:09;;;;;;;27.98;4.57;;;1.90;99.90;;;;;;5016123;28;20539;-82
2022/04/10 03:10:34;;;;;;;15.93;3.63;;;2.70;99.90;;;;;;5000923;28;20382;-81
2022/04/10 03:13:00;;;;;;;19.00;4.75;;;2.90;99.90;;;;;;5016113;28;20081;-81
2022/04/10 03:15:26;;;;;;;18.33;3.33;;;2.00;99.90;;;;;;4998075;28;20111;-82
2022/04/10 03:17:51;;;;;;;17.60;4.18;;;2.10;99.90;;;;;;4997284;28;20058;-82
2022/04/10 03:20:17;;;;;;;16.75;3.65;;;2.80;99.90;;;;;;4995496;28;20422;-82
2022/04/10 03:22:43;;;;;;;18.45;3.55;;;2.40;99.90;;;;;;5011496;28;20058;-82
2022/04/10 03:25:08;;;;;;;17.67;3.10;;;2.80;99.90;;;;;;4994907;28;20504;-81
2022/04/10 03:27:34;;;;;;;16.13;3.15;;;2.30;99.90;;;;;;5011254;28;20207;-82
2022/04/10 03:30:01;;;;;;;12.25;3.55;;;2.40;99.90;;;;;;4995119;28;20185;-83
2022/04/10 03:32:26;;;;;;;22.67;4.18;;;2.70;99.90;;;;;;4995205;28;20140;-82
2022/04/10 03:34:52;;;;;;;13.30;3.00;;;3.50;99.90;;;;;;5012129;28;20092;-83
2022/04/10 03:37:18;;;;;;;18.17;3.30;;;2.70;99.90;;;;;;4994983;28;20112;-82
2022/04/10 03:39:43;;;;;;;12.30;2.88;;;3.10;99.90;;;;;;4994753;28;20387;-82
2022/04/10 03:42:09;;;;;;;11.25;2.90;;;3.10;99.90;;;;;;5010516;28;20049;-82
2022/04/10 03:44:35;;;;;;;15.50;2.83;;;2.60;99.90;;;;;;4994751;28;20052;-82
2022/04/10 03:47:00;;;;;;;13.40;2.80;;;4.20;99.90;;;;;;4994893;28;20061;-82
2022/04/10 03:49:26;;;;;;;12.93;2.80;;;2.60;99.90;;;;;;5010536;28;20052;-82
2022/04/10 03:51:52;;;;;;;14.05;2.58;;;3.50;99.90;;;;;;5010803;28;20202;-83
2022/04/10 03:54:17;;;;;;;15.32;2.55;;;3.20;99.90;;;;;;4993784;28;20049;-83
2022/04/10 03:56:43;;;;;;;8.40;3.22;;;2.60;99.90;;;;;;4994814;28;20038;-82
2022/04/10 03:59:09;;;;;;;11.23;3.05;;;2.60;99.90;;;;;;5006347;28;20049;-82
2022/04/10 04:01:34;;;;;;;9.90;2.97;;;2.80;99.90;;;;;;5009332;28;20125;-82
2022/04/10 04:04:00;;;;;;;12.75;2.60;;;3.40;99.90;;;;;;5014901;28;20064;-82
2022/04/10 04:06:26;;;;;;;7.88;2.40;;;2.70;99.90;;;;;;4993379;28;20046;-82
2022/04/10 04:08:52;;;;;;;10.32;2.40;;;3.70;99.90;;;;;;4994173;28;20054;-82
2022/04/10 04:11:17;;;;;;;12.60;2.28;;;4.20;99.90;;;;;;5010488;28;20038;-83
2022/04/10 04:13:43;;;;;;;11.90;2.70;;;2.70;99.90;;;;;;5010666;28;20076;-83
2022/04/10 04:16:09;;;;;;;13.40;2.45;;;2.70;99.90;;;;;;5011341;28;20057;-83
2022/04/10 04:18:35;;;;;;;11.50;2.85;;;2.70;99.90;;;;;;5011686;28;20042;-83
2022/04/10 04:21:01;;;;;;;9.82;2.15;;;2.70;99.90;;;;;;4994795;28;20054;-83
2022/04/10 04:23:27;;;;;;;12.88;2.33;;;2.70;99.90;;;;;;5010125;28;20045;-81
2022/04/10 04:25:53;;;;;;;9.70;2.25;;;2.80;99.90;;;;;;4994593;28;20138;-82
2022/04/10 04:28:19;;;;;;;5.40;1.80;;;2.80;99.90;;;;;;5010489;28;20042;-82
2022/04/10 04:30:45;;;;;;;12.70;2.38;;;2.80;99.90;;;;;;5010979;28;20509;-81
2022/04/10 04:33:10;;;;;;;9.23;2.13;;;2.90;99.90;;;;;;5010691;28;20053;-82
2022/04/10 04:35:36;;;;;;;5.88;1.90;;;2.80;99.90;;;;;;5010081;28;20096;-83
2022/04/10 04:38:02;;;;;;;6.30;1.98;;;3.40;99.90;;;;;;5012417;28;20061;-81
2022/04/10 04:40:28;;;;;;;8.27;2.17;;;3.40;99.90;;;;;;5009158;28;20101;-83
2022/04/10 04:42:53;;;;;;;7.55;2.28;;;2.60;99.90;;;;;;5000527;28;20061;-80
2022/04/10 04:45:19;;;;;;;8.57;2.10;;;3.00;99.90;;;;;;4993851;28;20045;-81
2022/04/10 04:47:45;;;;;;;9.90;2.13;;;2.50;99.90;;;;;;5012360;28;20128;-82
2022/04/10 04:50:11;;;;;;;6.97;2.38;;;2.50;99.90;;;;;;4991099;28;20122;-82
2022/04/10 04:52:36;;;;;;;10.23;2.58;;;3.80;99.90;;;;;;5012284;28;20056;-82
2022/04/10 04:55:02;;;;;;;12.13;2.10;;;2.40;99.90;;;;;;5017191;28;20075;-82
2022/04/10 04:57:28;;;;;;;7.18;2.13;;;2.30;99.90;;;;;;5012137;28;20062;-83
2022/04/10 04:59:54;;;;;;;10.75;2.00;;;3.30;99.90;;;;;;5019120;28;20049;-82
2022/04/10 05:02:20;;;;;;;10.07;2.47;;;2.40;99.90;;;;;;5010941;28;20406;-82
2022/04/10 05:04:45;;;;;;;5.05;2.17;;;3.10;99.90;;;;;;4993156;28;20045;-83
2022/04/10 05:07:11;;;;;;;7.30;2.40;;;3.20;99.90;;;;;;5012706;28;20116;-83
2022/04/10 05:09:36;;;;;;;10.15;1.95;;;3.60;99.90;;;;;;5014920;28;20053;-83
2022/04/10 05:12:02;;;;;;;8.90;2.13;;;2.20;99.90;;;;;;5015307;28;20081;-82
2022/04/10 05:14:28;;;;;;;11.38;2.20;;;2.20;99.90;;;;;;5014837;28;20061;-82
2022/04/10 05:16:54;;;;;;;7.15;1.90;;;2.20;99.90;;;;;;5014281;28;20054;-82
2022/04/10 05:19:20;;;;;;;6.35;1.90;;;2.30;99.90;;;;;;4996389;28;20041;-81
2022/04/10 05:21:45;;;;;;;7.72;2.03;;;2.40;99.90;;;;;;5008744;28;20040;-81
2022/04/10 05:24:11;;;;;;;6.50;2.20;;;2.50;99.90;;;;;;5013233;28;20140;-82
2022/04/10 05:26:37;;;;;;;9.30;2.08;;;2.70;99.90;;;;;;5031129;28;20068;-80
2022/04/10 05:29:06;;;;;;;10.57;2.55;;;3.00;99.90;;;;;;5014486;28;20527;-80
2022/04/10 05:31:32;;;;;;;4.63;1.60;;;3.30;99.90;;;;;;5014971;28;20107;-80
2022/04/10 05:33:57;;;;;;;11.38;1.92;;;3.50;99.90;;;;;;5032559;28;20137;-80
2022/04/10 05:36:23;;;;;;;10.15;2.08;;;4.20;99.90;;;;;;5014511;28;20045;-81
2022/04/10 05:38:49;;;;;;;6.25;1.95;;;3.60;99.90;;;;;;5033052;28;20088;-80
2022/04/10 05:41:15;;;;;;;5.82;2.10;;;3.40;99.90;;;;;;5014711;28;20041;-81
2022/04/10 05:43:40;;;;;;;8.48;2.20;;;3.70;99.90;;;;;;5014307;28;20485;-79
2022/04/10 05:46:06;;;;;;;6.85;1.65;;;4.30;99.90;;;;;;5014187;28;20052;-80
2022/04/10 05:48:32;;;;;;;6.45;1.83;;;4.80;99.90;;;;;;5009969;28;20065;-80
2022/04/10 05:50:58;;;;;;;6.72;1.65;;;4.90;99.90;;;;;;5011760;28;20052;-81
2022/04/10 05:53:27;;;;;;;9.88;1.98;;;5.30;99.90;;;;;;5009058;28;20087;-78
2022/04/10 05:55:52;;;;;;;9.15;2.25;;;4.70;99.90;;;;;;5013632;28;20118;-80
2022/04/10 05:58:18;;;;;;;5.85;1.75;;;4.90;99.90;;;;;;5011309;28;20165;-80
2022/04/10 06:00:44;;;;;;;8.90;1.90;;;5.50;99.90;;;;;;5009845;28;20548;-80
2022/04/10 06:03:09;;;;;;;7.15;1.85;;;4.90;99.90;;;;;;5010032;28;20143;-81
2022/04/10 06:05:35;;;;;;;7.85;1.80;;;5.50;99.90;;;;;;4992654;28;20414;-80
2022/04/10 06:08:01;;;;;;;6.90;1.83;;;5.90;99.90;;;;;;4993155;28;20046;-81
2022/04/10 06:10:27;;;;;;;9.43;2.40;;;6.50;99.90;;;;;;5008979;28;20598;-81
2022/04/10 06:12:53;;;;;;;8.70;2.03;;;6.60;99.90;;;;;;5007814;28;20053;-80
2022/04/10 06:15:19;;;;;;;6.70;1.70;;;7.00;99.90;;;;;;5009152;28;20081;-81
2022/04/10 06:17:45;;;;;;;6.95;1.65;;;7.20;99.90;;;;;;4976909;28;20084;-81
2022/04/10 06:20:11;;;;;;;9.45;2.50;;;7.40;99.90;;;;;;5009706;28;20175;-80
2022/04/10 06:22:37;;;;;;;5.40;1.60;;;7.80;99.90;;;;;;5009946;28;20490;-80
2022/04/10 06:25:03;;;;;;;6.45;1.88;;;8.30;99.90;;;;;;5010677;28;20145;-78
2022/04/10 06:27:29;;;;;;;4.25;1.40;;;7.90;99.90;;;;;;4992885;28;20228;-80
2022/04/10 06:29:54;;;;;;;6.95;2.85;;;7.00;99.90;;;;;;5010802;28;20125;-80
2022/04/10 06:32:20;;;;;;;3.38;1.42;;;6.00;99.90;;;;;;5014398;28;20057;-80
2022/04/10 06:34:46;;;;;;;7.70;1.75;;;5.70;99.90;;;;;;5029912;28;20045;-79
2022/04/10 06:37:12;;;;;;;5.50;1.60;;;5.40;99.90;;;;;;5014015;28;20041;-80
2022/04/10 06:39:38;;;;;;;4.47;1.63;;;5.20;99.90;;;;;;5030108;28;20049;-79
2022/04/10 06:42:08;;;;;;;4.20;1.40;;;5.20;99.90;;;;;;4998251;28;20041;-80
2022/04/10 06:44:33;;;;;;;7.43;2.22;;;6.00;99.90;;;;;;5014171;28;20512;-79
2022/04/10 06:46:59;;;;;;;4.28;1.85;;;5.90;99.90;;;;;;4998201;28;20072;-80
2022/04/10 06:49:25;;;;;;;3.67;1.25;;;6.10;99.90;;;;;;5031567;28;20037;-78
2022/04/10 06:51:50;;;;;;;5.55;1.55;;;5.90;99.90;;;;;;5013943;28;20095;-80
2022/04/10 06:54:16;;;;;;;7.97;1.95;;;6.00;99.90;;;;;;5030322;28;20099;-80
2022/04/10 06:56:42;;;;;;;10.23;1.75;;;6.80;99.90;;;;;;5030404;28;20124;-80
2022/04/10 06:59:07;;;;;;;3.55;1.40;;;8.10;99.90;;;;;;5015535;28;20441;-80
2022/04/10 07:01:33;;;;;;;7.53;1.90;;;8.10;99.90;;;;;;5028951;28;20037;-81
2022/04/10 07:04:00;;;;;;;5.70;1.77;;;7.20;99.90;;;;;;5033026;28;20095;-81
2022/04/10 07:06:26;;;;;;;10.13;1.70;;;7.00;99.90;;;;;;5032144;28;20092;-81
2022/04/10 07:08:52;;;;;;;7.90;1.70;;;6.30;99.90;;;;;;5014229;28;20085;-82
2022/04/10 07:11:18;;;;;;;7.57;1.70;;;5.90;99.90;;;;;;5014159;28;20045;-81
2022/04/10 07:13:43;;;;;;;8.02;1.83;;;5.70;99.90;;;;;;5031448;28;20046;-81
2022/04/10 07:16:09;;;;;;;9.60;2.00;;;5.50;99.90;;;;;;5031076;28;20050;-82
2022/04/10 07:18:35;;;;;;;8.20;2.10;;;5.00;99.90;;;;;;5031409;28;20053;-82
2022/04/10 07:21:00;;;;;;;6.80;2.05;;;4.80;99.90;;;;;;5032421;28;20049;-81
2022/04/10 07:23:45;;;;;;;7.93;1.73;;;5.40;99.90;;;;;;5014703;28;20046;-81
2022/04/10 07:26:12;;;;;;;4.22;1.60;;;6.10;99.90;;;;;;5031242;28;20124;-81
2022/04/10 07:28:38;;;;;;;3.65;1.55;;;7.40;99.90;;;;;;5031047;28;20045;-81
2022/04/10 07:31:05;;;;;;;5.70;1.30;;;8.10;99.90;;;;;;4981861;28;20041;-80
2022/04/10 07:33:31;;;;;;;4.07;1.50;;;9.00;99.90;;;;;;5029845;28;20052;-81
2022/04/10 07:35:57;;;;;;;5.20;1.60;;;9.50;99.90;;;;;;5013995;28;20049;-81
2022/04/10 07:38:22;;;;;;;3.65;1.30;;;9.20;99.90;;;;;;5031568;28;20132;-81
2022/04/10 07:40:48;;;;;;;4.25;1.63;;;8.70;99.90;;;;;;5029353;28;20063;-82
2022/04/10 07:43:14;;;;;;;5.20;1.60;;;9.10;99.90;;;;;;5013457;28;20041;-82
2022/04/10 07:48:26;;;;;;;3.75;1.40;;;9.70;99.90;;;;;;5015976;28;20041;-81
2022/04/10 07:50:52;;;;;;;5.65;1.83;;;9.80;99.90;;;;;;5028526;28;20052;-80
2022/04/10 07:53:18;;;;;;;4.40;1.50;;;10.00;99.90;;;;;;4997052;28;20139;-80
2022/04/10 07:55:44;;;;;;;6.78;1.88;;;10.10;99.90;;;;;;5012152;28;20101;-81
2022/04/10 07:58:09;;;;;;;6.72;1.50;;;10.50;99.90;;;;;;5030147;28;20048;-80
2022/04/10 08:00:35;;;;;;;7.40;1.92;;;10.70;99.90;;;;;;5029733;28;20049;-82
2022/04/10 08:03:01;;;;;;;9.40;1.92;;;10.80;99.90;;;;;;5013302;28;20049;-81
2022/04/10 08:05:27;;;;;;;5.95;1.80;;;10.90;99.90;;;;;;5013875;28;20056;-80
2022/04/10 08:07:54;;;;;;;10.70;2.35;;;10.80;99.90;;;;;;5030338;28;20049;-81
2022/04/10 08:10:20;;;;;;;5.30;1.77;;;11.10;99.90;;;;;;5013262;28;20053;-80
2022/04/10 08:12:46;;;;;;;7.35;1.92;;;11.30;99.90;;;;;;5028156;28;20040;-80
2022/04/10 08:15:11;;;;;;;6.78;1.70;;;10.90;99.90;;;;;;5028638;28;20409;-80
2022/04/10 08:17:37;;;;;;;9.60;1.80;;;11.00;99.90;;;;;;5012545;28;20533;-81
2022/04/10 08:20:04;;;;;;;7.10;1.60;;;11.20;99.90;;;;;;5028634;28;20061;-80
2022/04/10 08:22:31;;;;;;;6.15;1.98;;;11.30;99.90;;;;;;4994615;28;20477;-81
2022/04/10 08:25:01;;;;;;;7.00;1.65;;;11.50;99.90;;;;;;5011420;28;20095;-80
2022/04/10 08:27:27;;;;;;;6.03;1.77;;;11.40;99.90;;;;;;5012047;28;20083;-79
2022/04/10 08:29:53;;;;;;;4.82;1.88;;;11.70;99.90;;;;;;5011161;28;20046;-80
2022/04/10 08:32:18;;;;;;;5.57;1.80;;;11.80;99.90;;;;;;5012574;28;20067;-80
2022/04/10 08:34:44;;;;;;;6.45;1.60;;;11.60;99.90;;;;;;5028730;28;20087;-80
2022/04/10 08:37:10;;;;;;;8.80;2.35;;;11.60;99.90;;;;;;5027759;28;20120;-81
2022/04/10 08:39:35;;;;;;;6.97;1.83;;;11.00;99.90;;;;;;5026696;28;20488;-79
2022/04/10 08:42:03;;;;;;;7.13;1.60;;;11.40;99.90;;;;;;5028792;28;20077;-80
2022/04/10 08:44:29;;;;;;;7.38;2.00;;;11.90;99.90;;;;;;4995331;28;20127;-81
2022/04/10 08:46:55;;;;;;;8.95;2.15;;;12.10;99.90;;;;;;4994762;28;20049;-81
2022/04/10 08:49:21;;;;;;;9.15;1.77;;;12.70;99.90;;;;;;4996369;28;20045;-80
2022/04/10 08:51:47;;;;;;;5.60;1.58;;;11.70;99.90;;;;;;5011955;28;20042;-81
2022/04/10 08:54:13;;;;;;;8.93;2.20;;;11.50;99.90;;;;;;5028465;28;20489;-80
2022/04/10 08:56:39;;;;;;;7.05;1.90;;;11.30;99.90;;;;;;5012582;28;20404;-80
2022/04/10 08:59:05;;;;;;;7.05;2.05;;;11.20;99.90;;;;;;5028413;28;20052;-80
2022/04/10 09:01:30;;;;;;;13.80;1.90;;;10.90;99.90;;;;;;5030041;28;20056;-80
2022/04/10 09:03:56;;;;;;;10.05;2.17;;;11.10;99.90;;;;;;5029921;28;20366;-80
2022/04/10 09:06:22;;;;;;;5.57;1.70;;;11.40;99.90;;;;;;4996288;28;20104;-79
2022/04/10 09:08:47;;;;;;;6.75;1.77;;;12.20;99.90;;;;;;4995999;28;20049;-80
2022/04/10 09:11:13;;;;;;;5.68;1.83;;;12.50;99.90;;;;;;5028941;28;20247;-79
2022/04/10 09:13:46;;;;;;;9.05;1.80;;;12.00;99.90;;;;;;5029069;28;20366;-78
2022/04/10 09:16:20;;;;;;;9.65;2.00;;;11.40;99.90;;;;;;5006236;28;20093;-79
2022/04/10 09:18:49;;;;;;;8.02;1.67;;;10.40;99.90;;;;;;5016136;28;20050;-79
2022/04/10 09:21:15;;;;;;;7.32;1.98;;;10.20;99.90;;;;;;5025734;28;20132;-79
2022/04/10 09:23:40;;;;;;;10.90;2.38;;;11.10;99.90;;;;;;5014763;28;20083;-78
2022/04/10 09:26:06;;;;;;;3.97;1.52;;;12.00;99.90;;;;;;4997134;28;20045;-80
2022/04/10 09:28:48;;;;;;;5.78;1.58;;;12.20;99.90;;;;;;5031084;28;20084;-79
2022/04/10 09:31:43;;;;;;;7.75;1.70;;;11.40;99.90;;;;;;5029528;28;20106;-80
2022/04/10 09:34:11;;;;;;;6.20;1.70;;;11.20;99.90;;;;;;4998508;28;20057;-78
2022/04/10 09:36:41;;;;;;;7.90;1.88;;;11.30;99.90;;;;;;5033428;28;20088;-79
2022/04/10 09:39:12;;;;;;;7.32;1.48;;;10.70;99.90;;;;;;5032670;28;20053;-80
2022/04/10 09:41:39;;;;;;;8.18;1.80;;;10.60;99.90;;;;;;5017244;28;20120;-80
2022/04/10 09:44:11;;;;;;;10.32;2.30;;;11.40;99.90;;;;;;5033633;28;20129;-80
2022/04/10 09:46:37;;;;;;;4.40;1.65;;;10.80;99.90;;;;;;5033242;28;20139;-80
2022/04/10 09:49:04;;;;;;;6.97;1.73;;;11.40;99.90;;;;;;5031859;28;20133;-80
2022/04/10 09:51:30;;;;;;;4.60;1.45;;;11.40;99.90;;;;;;5000230;28;20064;-79
2022/04/10 09:54:04;;;;;;;4.63;1.48;;;11.90;99.90;;;;;;5031680;28;20799;-78
2022/04/10 09:56:29;;;;;;;6.07;1.20;;;11.20;99.90;;;;;;5016898;28;20103;-79
2022/04/10 09:58:59;;;;;;;4.35;1.40;;;11.30;99.90;;;;;;5032649;28;20041;-79
2022/04/10 10:01:28;;;;;;;4.75;1.27;;;12.20;99.90;;;;;;5032488;28;20052;-80
2022/04/10 10:03:57;;;;;;;7.05;2.03;;;13.20;99.90;;;;;;5032150;28;20048;-81
2022/04/10 10:06:23;;;;;;;3.67;1.27;;;13.50;99.90;;;;;;5015781;28;20050;-81
2022/04/10 10:08:49;;;;;;;6.00;1.30;;;13.10;99.80;;;;;;5000036;28;20148;-81
2022/04/10 10:11:15;;;;;;;4.45;1.10;;;13.80;99.90;;;;;;4999125;28;20505;-80
2022/04/10 10:13:41;;;;;;;4.82;1.83;;;12.80;99.90;;;;;;4999576;28;20051;-80
2022/04/10 10:16:10;;;;;;;7.10;1.42;;;13.90;99.90;;;;;;5032441;28;20081;-80
2022/04/10 10:18:35;;;;;;;6.68;1.30;;;14.40;99.90;;;;;;5015903;28;20138;-80
2022/04/10 10:21:02;;;;;;;4.25;1.38;;;14.60;99.80;;;;;;5028872;28;20501;-80
2022/04/10 10:23:28;;;;;;;5.80;1.55;;;14.00;99.90;;;;;;4997037;28;20413;-81
2022/04/10 10:26:30;;;;;;;8.68;1.70;;;14.40;99.90;;;;;;5014302;28;20060;-80
2022/04/10 10:29:11;;;;;;;8.43;2.08;;;13.00;99.90;;;;;;4994265;28;20145;-81
2022/04/10 10:31:59;;;;;;;8.90;1.80;;;11.80;99.90;;;;;;5030548;28;20045;-80
2022/04/10 10:34:26;;;;;;;5.38;1.60;;;11.10;99.90;;;;;;5013556;28;20485;-81
2022/04/10 10:36:54;;;;;;;7.97;1.98;;;11.20;99.90;;;;;;5026538;28;20124;-80
2022/04/10 10:39:20;;;;;;;9.15;2.47;;;11.20;99.90;;;;;;5029836;28;20045;-79
2022/04/10 10:41:49;;;;;;;8.27;2.47;;;10.70;99.90;;;;;;5028111;28;20079;-79
2022/04/10 10:44:24;;;;;;;8.70;1.92;;;10.60;99.90;;;;;;5027313;28;20080;-79
2022/04/10 10:46:57;;;;;;;7.32;1.58;;;11.10;99.90;;;;;;5026950;28;20112;-79
2022/04/10 10:49:22;;;;;;;7.82;1.75;;;11.80;99.90;;;;;;5027262;28;20041;-80
2022/04/10 10:51:49;;;;;;;7.95;1.92;;;12.40;99.90;;;;;;5030623;28;20042;-79
2022/04/10 10:54:24;;;;;;;2.85;1.17;;;12.20;99.90;;;;;;5012827;28;20360;-79
2022/04/10 10:56:52;;;;;;;8.02;1.70;;;12.80;99.90;;;;;;5012418;28;20057;-80
2022/04/10 10:59:27;;;;;;;6.50;1.67;;;12.70;99.90;;;;;;5028375;28;20132;-80
2022/04/10 11:02:12;;;;;;;5.40;1.55;;;12.00;99.90;;;;;;5028336;28;20049;-80
2022/04/10 11:04:45;;;;;;;6.90;1.95;;;11.40;99.90;;;;;;5012007;28;20549;-80
2022/04/10 11:07:14;;;;;;;5.85;1.90;;;10.90;99.90;;;;;;5025269;28;20063;-79
2022/04/10 11:10:10;;;;;;;9.35;1.90;;;10.50;99.90;;;;;;5028180;28;20069;-79
2022/04/10 11:12:47;;;;;;;5.63;2.05;;;10.40;99.90;;;;;;5011802;28;20060;-80
2022/04/10 11:15:17;;;;;;;5.00;1.20;;;10.00;99.90;;;;;;5027223;28;20136;-80
2022/04/10 11:17:42;;;;;;;7.65;1.52;;;10.30;99.90;;;;;;5028682;28;20428;-79
2022/04/10 11:20:09;;;;;;;6.60;2.28;;;10.50;99.90;;;;;;5028351;28;20136;-81
2022/04/10 11:22:54;;;;;;;8.30;1.48;;;10.80;99.90;;;;;;5028703;28;20144;-78
2022/04/10 11:25:26;;;;;;;7.40;1.63;;;11.00;99.90;;;;;;5028052;28;20588;-81
2022/04/10 11:27:59;;;;;;;7.53;1.98;;;11.20;99.90;;;;;;5012192;28;20041;-80
2022/04/10 11:30:32;;;;;;;6.45;1.70;;;11.00;99.90;;;;;;5011756;28;20057;-81
2022/04/10 11:32:57;;;;;;;7.93;2.10;;;10.80;99.90;;;;;;5028552;28;20489;-81
2022/04/10 11:35:25;;;;;;;6.72;1.55;;;10.70;99.90;;;;;;5030699;28;20080;-80
2022/04/10 11:37:52;;;;;;;7.68;1.80;;;10.80;99.90;;;;;;5016514;28;20049;-81
2022/04/10 11:40:19;;;;;;;8.20;2.22;;;10.50;99.90;;;;;;5028146;28;20061;-81
2022/04/10 11:42:48;;;;;;;6.72;1.50;;;10.30;99.90;;;;;;5030889;28;20049;-79
2022/04/10 11:45:14;;;;;;;5.15;1.55;;;9.80;99.90;;;;;;5012815;28;20557;-79
2022/04/10 11:47:41;;;;;;;7.97;1.60;;;10.20;99.90;;;;;;5028853;28;20088;-79
2022/04/10 11:50:08;;;;;;;7.18;1.40;;;10.50;99.90;;;;;;5011772;28;20045;-78
2022/04/10 11:52:33;;;;;;;5.95;1.40;;;10.70;99.90;;;;;;4995864;28;20176;-78
2022/04/10 11:54:59;;;;;;;8.30;1.52;;;10.70;99.90;;;;;;5027740;28;20128;-79
2022/04/10 11:57:25;;;;;;;5.68;1.50;;;11.00;99.90;;;;;;5026840;28;20033;-80
2022/04/10 11:59:50;;;;;;;6.82;1.70;;;11.30;99.90;;;;;;5027605;28;20302;-79
2022/04/10 12:02:17;;;;;;;7.70;1.90;;;11.40;99.90;;;;;;5010805;28;20072;-80
2022/04/10 12:04:43;;;;;;;8.82;1.38;;;11.70;99.90;;;;;;5027971;28;20045;-79
2022/04/10 12:07:13;;;;;;;5.65;2.20;;;12.00;99.90;;;;;;4994487;28;20043;-79
2022/04/10 12:09:39;;;;;;;6.15;1.40;;;12.00;99.90;;;;;;5011144;28;20045;-79
2022/04/10 12:12:06;;;;;;;8.15;1.52;;;12.50;99.90;;;;;;5027835;28;20061;-80
2022/04/10 12:14:31;;;;;;;8.68;2.00;;;12.20;99.90;;;;;;5011019;28;20065;-79
2022/04/10 12:16:57;;;;;;;8.23;1.52;;;12.20;99.90;;;;;;5011448;28;20524;-77
2022/04/10 12:19:34;;;;;;;6.65;1.73;;;12.10;99.90;;;;;;5011117;28;20046;-81
2022/04/10 12:22:02;;;;;;;8.85;1.67;;;11.80;99.90;;;;;;4978984;28;20180;-79
2022/04/10 12:24:27;;;;;;;5.28;1.52;;;11.90;99.90;;;;;;5011254;28;20041;-79
2022/04/10 12:26:53;;;;;;;5.25;2.00;;;12.00;99.90;;;;;;4994312;28;20048;-79
2022/04/10 12:29:20;;;;;;;7.20;1.50;;;12.20;99.90;;;;;;5026164;28;20784;-78
2022/04/10 12:31:45;;;;;;;4.40;1.15;;;12.40;99.90;;;;;;5026293;28;20489;-79
2022/04/10 12:34:13;;;;;;;3.33;1.30;;;12.50;99.90;;;;;;5009164;28;20059;-79
2022/04/10 12:36:49;;;;;;;3.63;1.40;;;12.50;99.90;;;;;;5026902;28;20124;-79
2022/04/10 12:39:28;;;;;;;6.32;1.30;;;12.20;99.90;;;;;;5026438;28;20056;-79
2022/04/10 12:42:22;;;;;;;5.53;1.65;;;12.30;99.90;;;;;;5025469;28;20052;-79
2022/04/10 12:44:55;;;;;;;5.93;1.30;;;12.40;99.90;;;;;;5026995;28;20501;-79
2022/04/10 12:47:49;;;;;;;3.40;1.17;;;11.90;99.90;;;;;;5026169;28;20904;-80
2022/04/10 12:50:17;;;;;;;5.35;1.65;;;11.50;99.90;;;;;;5024643;28;20148;-80